sensor_id;sensor_type;location;lat;lon;timestamp;pressure;altitude;pressure_sealevel;temperature;humidity
6528;BME280;64597;42.664;23.256;2023-04-10T00:00:05;94646.75;;;8.36;54.80
6528;BME280;64597;42.664;23.256;2023-04-10T00:02:31;94637.88;;;8.37;55.09
6528;BME280;64597;42.664;23.256;2023-04-10T00:04:57;94641.44;;;8.43;55.71
6528;BME280;64597;42.664;23.256;2023-04-10T00:07:22;94599.75;;;8.10;55.93
6528;BME280;64597;42.664;23.256;2023-04-10T00:09:48;94639.56;;;8.32;56.98
6528;BME280;64597;42.664;23.256;2023-04-10T00:12:13;94629.00;;;8.38;56.80
6528;BME280;64597;42.664;23.256;2023-04-10T00:14:40;94635.31;;;8.30;56.52
6528;BME280;64597;42.664;23.256;2023-04-10T00:17:06;94639.09;;;8.35;55.73
6528;BME280;64597;42.664;23.256;2023-04-10T00:19:32;94635.56;;;8.22;55.28
6528;BME280;64597;42.664;23.256;2023-04-10T00:21:57;94633.81;;;8.16;54.94
6528;BME280;64597;42.664;23.256;2023-04-10T00:24:23;94632.00;;;8.17;54.36
6528;BME280;64597;42.664;23.256;2023-04-10T00:26:48;94623.31;;;8.16;53.61
6528;BME280;64597;42.664;23.256;2023-04-10T00:29:14;94623.75;;;8.13;53.28
6528;BME280;64597;42.664;23.256;2023-04-10T00:31:39;94616.59;;;8.02;53.08
6528;BME280;64597;42.664;23.256;2023-04-10T00:34:05;94627.75;;;8.16;52.90
6528;BME280;64597;42.664;23.256;2023-04-10T00:36:31;94628.03;;;8.08;51.85
6528;BME280;64597;42.664;23.256;2023-04-10T00:38:57;94629.66;;;8.09;52.39
6528;BME280;64597;42.664;23.256;2023-04-10T00:41:23;94629.22;;;8.12;51.44
6528;BME280;64597;42.664;23.256;2023-04-10T00:43:49;94627.75;;;8.16;51.41
6528;BME280;64597;42.664;23.256;2023-04-10T00:46:15;94630.38;;;8.16;52.03
6528;BME280;64597;42.664;23.256;2023-04-10T00:48:41;94630.84;;;8.13;51.63
6528;BME280;64597;42.664;23.256;2023-04-10T00:51:07;94623.59;;;8.08;51.48
6528;BME280;64597;42.664;23.256;2023-04-10T00:53:32;94627.72;;;7.98;51.14
6528;BME280;64597;42.664;23.256;2023-04-10T00:56:00;94630.00;;;7.94;51.03
6528;BME280;64597;42.664;23.256;2023-04-10T00:58:25;94627.00;;;7.91;51.68
6528;BME280;64597;42.664;23.256;2023-04-10T01:00:51;94623.34;;;7.92;51.76
6528;BME280;64597;42.664;23.256;2023-04-10T01:03:18;94616.41;;;7.97;51.74
6528;BME280;64597;42.664;23.256;2023-04-10T01:06:11;94614.78;;;8.03;51.13
6528;BME280;64597;42.664;23.256;2023-04-10T01:08:40;94624.88;;;7.99;51.42
6528;BME280;64597;42.664;23.256;2023-04-10T01:14:37;94619.56;;;8.06;51.77
6528;BME280;64597;42.664;23.256;2023-04-10T01:17:07;94619.16;;;8.09;51.24
6528;BME280;64597;42.664;23.256;2023-04-10T01:20:00;94619.63;;;7.99;51.08
6528;BME280;64597;42.664;23.256;2023-04-10T01:30:45;94613.78;;;7.97;53.12
6528;BME280;64597;42.664;23.256;2023-04-10T01:33:12;94615.78;;;8.02;53.59
6528;BME280;64597;42.664;23.256;2023-04-10T01:35:43;94614.78;;;8.03;54.09
6528;BME280;64597;42.664;23.256;2023-04-10T01:38:10;94612.16;;;8.03;54.90
6528;BME280;64597;42.664;23.256;2023-04-10T01:40:38;94610.69;;;8.07;55.16
6528;BME280;64597;42.664;23.256;2023-04-10T01:43:07;94615.38;;;8.05;54.88
6528;BME280;64597;42.664;23.256;2023-04-10T01:45:34;94616.53;;;8.09;55.34
6528;BME280;64597;42.664;23.256;2023-04-10T01:48:00;94606.50;;;7.99;54.59
6528;BME280;64597;42.664;23.256;2023-04-10T01:50:27;94604.56;;;7.95;54.71
6528;BME280;64597;42.664;23.256;2023-04-10T01:52:55;94599.72;;;7.92;54.86
6528;BME280;64597;42.664;23.256;2023-04-10T01:55:21;94618.63;;;8.00;54.88
6528;BME280;64597;42.664;23.256;2023-04-10T01:57:48;94615.19;;;8.00;54.40
6528;BME280;64597;42.664;23.256;2023-04-10T02:00:15;94604.09;;;7.98;54.25
6528;BME280;64597;42.664;23.256;2023-04-10T02:02:41;94609.34;;;7.98;53.86
6528;BME280;64597;42.664;23.256;2023-04-10T02:05:07;94614.91;;;8.08;54.11
6528;BME280;64597;42.664;23.256;2023-04-10T02:10:43;94611.22;;;8.15;53.66
6528;BME280;64597;42.664;23.256;2023-04-10T02:13:10;94606.63;;;8.11;54.29
6528;BME280;64597;42.664;23.256;2023-04-10T02:15:41;94605.00;;;8.10;54.06
6528;BME280;64597;42.664;23.256;2023-04-10T02:18:09;94602.53;;;8.15;54.12
6528;BME280;64597;42.664;23.256;2023-04-10T02:20:35;94608.72;;;8.20;54.30
6528;BME280;64597;42.664;23.256;2023-04-10T02:23:01;94599.19;;;8.26;54.08
6528;BME280;64597;42.664;23.256;2023-04-10T02:25:34;94593.06;;;8.32;54.26
6528;BME280;64597;42.664;23.256;2023-04-10T02:28:03;94587.81;;;8.32;54.06
6528;BME280;64597;42.664;23.256;2023-04-10T02:30:29;94589.06;;;8.29;53.83
6528;BME280;64597;42.664;23.256;2023-04-10T02:32:55;94586.34;;;8.36;54.10
6528;BME280;64597;42.664;23.256;2023-04-10T02:35:20;94578.28;;;8.38;54.37
6528;BME280;64597;42.664;23.256;2023-04-10T02:37:46;94579.66;;;8.40;53.62
6528;BME280;64597;42.664;23.256;2023-04-10T02:40:12;94576.00;;;8.41;54.02
6528;BME280;64597;42.664;23.256;2023-04-10T02:42:37;94573.22;;;8.36;54.22
6528;BME280;64597;42.664;23.256;2023-04-10T02:45:03;94565.13;;;8.38;53.87
6528;BME280;64597;42.664;23.256;2023-04-10T02:47:28;94564.44;;;8.24;54.81
6528;BME280;64597;42.664;23.256;2023-04-10T02:49:54;94483.81;;;7.77;54.87
6528;BME280;64597;42.664;23.256;2023-04-10T02:52:19;94550.38;;;8.18;55.48
6528;BME280;64597;42.664;23.256;2023-04-10T02:54:45;94576.94;;;8.28;55.07
6528;BME280;64597;42.664;23.256;2023-04-10T02:57:11;94564.03;;;8.27;55.59
6528;BME280;64597;42.664;23.256;2023-04-10T02:59:37;94565.06;;;8.26;55.28
6528;BME280;64597;42.664;23.256;2023-04-10T03:02:02;94573.31;;;8.29;55.70
6528;BME280;64597;42.664;23.256;2023-04-10T03:04:31;94562.59;;;8.31;55.66
6528;BME280;64597;42.664;23.256;2023-04-10T03:06:56;94566.09;;;8.25;55.69
6528;BME280;64597;42.664;23.256;2023-04-10T03:09:21;94551.91;;;8.26;55.85
6528;BME280;64597;42.664;23.256;2023-04-10T03:11:47;94561.81;;;8.24;56.88
6528;BME280;64597;42.664;23.256;2023-04-10T03:14:12;94560.88;;;8.18;57.00
6528;BME280;64597;42.664;23.256;2023-04-10T03:16:38;94557.97;;;8.08;57.06
6528;BME280;64597;42.664;23.256;2023-04-10T03:19:03;94552.19;;;8.00;57.64
6528;BME280;64597;42.664;23.256;2023-04-10T03:21:29;94559.47;;;7.98;58.24
6528;BME280;64597;42.664;23.256;2023-04-10T03:23:54;94571.72;;;8.04;58.79
6528;BME280;64597;42.664;23.256;2023-04-10T03:26:20;94576.41;;;8.02;58.87
6528;BME280;64597;42.664;23.256;2023-04-10T03:28:48;94580.84;;;8.01;59.59
6528;BME280;64597;42.664;23.256;2023-04-10T03:31:13;94560.41;;;7.85;59.74
6528;BME280;64597;42.664;23.256;2023-04-10T03:33:39;94581.94;;;7.94;59.72
6528;BME280;64597;42.664;23.256;2023-04-10T03:36:04;94581.34;;;7.92;60.53
6528;BME280;64597;42.664;23.256;2023-04-10T03:38:30;94576.47;;;7.95;60.43
6528;BME280;64597;42.664;23.256;2023-04-10T03:40:56;94581.13;;;7.93;60.73
6528;BME280;64597;42.664;23.256;2023-04-10T03:43:21;94580.41;;;7.86;61.20
6528;BME280;64597;42.664;23.256;2023-04-10T03:45:47;94573.41;;;7.80;61.27
6528;BME280;64597;42.664;23.256;2023-04-10T03:48:12;94591.31;;;7.83;62.42
6528;BME280;64597;42.664;23.256;2023-04-10T03:50:38;94589.97;;;7.81;62.03
6528;BME280;64597;42.664;23.256;2023-04-10T03:53:03;94592.00;;;7.79;63.07
6528;BME280;64597;42.664;23.256;2023-04-10T03:55:29;94594.63;;;7.79;62.58
6528;BME280;64597;42.664;23.256;2023-04-10T03:57:55;94588.63;;;7.72;63.26
6528;BME280;64597;42.664;23.256;2023-04-10T04:00:20;94597.66;;;7.76;63.23
6528;BME280;64597;42.664;23.256;2023-04-10T04:02:47;94585.31;;;7.58;63.91
6528;BME280;64597;42.664;23.256;2023-04-10T04:05:14;94600.13;;;7.71;63.92
6528;BME280;64597;42.664;23.256;2023-04-10T04:07:39;94603.34;;;7.73;64.17
6528;BME280;64597;42.664;23.256;2023-04-10T04:10:05;94603.59;;;7.65;64.05
6528;BME280;64597;42.664;23.256;2023-04-10T04:12:31;94610.03;;;7.69;64.95
6528;BME280;64597;42.664;23.256;2023-04-10T04:14:57;94603.19;;;7.68;65.03
6528;BME280;64597;42.664;23.256;2023-04-10T04:17:22;94608.59;;;7.73;65.14
6528;BME280;64597;42.664;23.256;2023-04-10T04:19:47;94611.00;;;7.74;64.70
6528;BME280;64597;42.664;23.256;2023-04-10T04:22:14;94606.63;;;7.68;65.06
6528;BME280;64597;42.664;23.256;2023-04-10T04:24:39;94606.97;;;7.72;64.71
6528;BME280;64597;42.664;23.256;2023-04-10T04:27:05;94617.47;;;7.72;65.13
6528;BME280;64597;42.664;23.256;2023-04-10T04:29:31;94600.03;;;7.59;65.15
6528;BME280;64597;42.664;23.256;2023-04-10T04:31:56;94615.13;;;7.64;65.36
6528;BME280;64597;42.664;23.256;2023-04-10T04:34:22;94619.16;;;7.66;65.44
6528;BME280;64597;42.664;23.256;2023-04-10T04:36:48;94619.50;;;7.70;65.32
6528;BME280;64597;42.664;23.256;2023-04-10T04:39:13;94622.56;;;7.67;65.93
6528;BME280;64597;42.664;23.256;2023-04-10T04:41:39;94620.69;;;7.74;65.71
6528;BME280;64597;42.664;23.256;2023-04-10T04:44:04;94629.31;;;7.81;65.33
6528;BME280;64597;42.664;23.256;2023-04-10T04:46:30;94621.06;;;7.77;65.62
6528;BME280;64597;42.664;23.256;2023-04-10T04:48:56;94628.66;;;7.85;65.34
6528;BME280;64597;42.664;23.256;2023-04-10T04:51:21;94618.59;;;7.82;65.50
6528;BME280;64597;42.664;23.256;2023-04-10T04:53:47;94632.84;;;7.93;65.31
6528;BME280;64597;42.664;23.256;2023-04-10T04:56:12;94634.22;;;7.95;65.52
6528;BME280;64597;42.664;23.256;2023-04-10T04:58:38;94625.75;;;7.93;65.94
6528;BME280;64597;42.664;23.256;2023-04-10T05:01:03;94637.81;;;8.01;65.99
6528;BME280;64597;42.664;23.256;2023-04-10T05:03:29;94635.91;;;8.08;65.33
6528;BME280;64597;42.664;23.256;2023-04-10T05:05:55;94632.81;;;8.17;65.65
6528;BME280;64597;42.664;23.256;2023-04-10T05:08:21;94621.50;;;8.17;64.09
6528;BME280;64597;42.664;23.256;2023-04-10T05:10:47;94632.97;;;8.41;62.61
6528;BME280;64597;42.664;23.256;2023-04-10T05:13:12;94629.28;;;8.48;60.89
6528;BME280;64597;42.664;23.256;2023-04-10T05:15:37;94627.06;;;8.63;60.05
6528;BME280;64597;42.664;23.256;2023-04-10T05:18:03;94625.69;;;8.79;59.70
6528;BME280;64597;42.664;23.256;2023-04-10T05:20:29;94605.88;;;8.76;59.43
6528;BME280;64597;42.664;23.256;2023-04-10T05:22:54;94630.81;;;9.03;58.23
6528;BME280;64597;42.664;23.256;2023-04-10T05:25:20;94633.38;;;9.22;58.25
6528;BME280;64597;42.664;23.256;2023-04-10T05:27:45;94626.00;;;9.42;57.83
6528;BME280;64597;42.664;23.256;2023-04-10T05:30:11;94616.88;;;9.56;56.70
6528;BME280;64597;42.664;23.256;2023-04-10T05:32:36;94608.31;;;9.60;57.33
6528;BME280;64597;42.664;23.256;2023-04-10T05:35:02;94640.16;;;9.70;58.63
6528;BME280;64597;42.664;23.256;2023-04-10T05:37:27;94631.69;;;9.80;58.26
6528;BME280;64597;42.664;23.256;2023-04-10T05:39:53;94629.41;;;9.95;57.29
6528;BME280;64597;42.664;23.256;2023-04-10T05:42:18;94608.09;;;10.08;57.45
6528;BME280;64597;42.664;23.256;2023-04-10T05:44:44;94612.13;;;10.22;57.59
6528;BME280;64597;42.664;23.256;2023-04-10T05:47:09;94624.84;;;10.25;57.11
6528;BME280;64597;42.664;23.256;2023-04-10T05:49:35;94630.91;;;10.37;57.02
6528;BME280;64597;42.664;23.256;2023-04-10T05:52:00;94608.69;;;10.33;56.49
6528;BME280;64597;42.664;23.256;2023-04-10T05:54:26;94627.91;;;10.45;56.41
6528;BME280;64597;42.664;23.256;2023-04-10T05:56:51;94634.22;;;10.56;55.32
6528;BME280;64597;42.664;23.256;2023-04-10T05:59:17;94636.03;;;10.67;55.76
6528;BME280;64597;42.664;23.256;2023-04-10T06:01:43;94650.69;;;10.74;55.42
6528;BME280;64597;42.664;23.256;2023-04-10T06:04:09;94637.25;;;10.76;55.41
6528;BME280;64597;42.664;23.256;2023-04-10T06:06:34;94643.53;;;10.87;55.43
6528;BME280;64597;42.664;23.256;2023-04-10T06:09:00;94612.78;;;10.92;55.86
6528;BME280;64597;42.664;23.256;2023-04-10T06:11:25;94639.03;;;10.99;55.52
6528;BME280;64597;42.664;23.256;2023-04-10T06:13:51;94632.28;;;10.91;55.87
6528;BME280;64597;42.664;23.256;2023-04-10T06:16:17;94632.25;;;11.03;56.26
6528;BME280;64597;42.664;23.256;2023-04-10T06:18:42;94618.72;;;10.99;55.43
6528;BME280;64597;42.664;23.256;2023-04-10T06:21:08;94622.88;;;10.95;55.53
6528;BME280;64597;42.664;23.256;2023-04-10T06:23:33;94615.41;;;10.92;55.38
6528;BME280;64597;42.664;23.256;2023-04-10T06:26:00;94614.34;;;10.76;56.22
6528;BME280;64597;42.664;23.256;2023-04-10T06:28:25;94626.03;;;10.81;56.59
6528;BME280;64597;42.664;23.256;2023-04-10T06:30:51;94620.34;;;10.60;57.22
6528;BME280;64597;42.664;23.256;2023-04-10T06:33:16;94624.06;;;10.76;57.06
6528;BME280;64597;42.664;23.256;2023-04-10T06:35:42;94623.81;;;10.89;56.83
6528;BME280;64597;42.664;23.256;2023-04-10T06:38:07;94521.75;;;10.22;56.41
6528;BME280;64597;42.664;23.256;2023-04-10T06:40:33;94620.56;;;10.99;55.19
6528;BME280;64597;42.664;23.256;2023-04-10T06:42:59;94628.47;;;10.99;53.93
6528;BME280;64597;42.664;23.256;2023-04-10T06:45:25;94626.22;;;10.91;53.81
6528;BME280;64597;42.664;23.256;2023-04-10T06:47:51;94612.13;;;10.85;52.92
6528;BME280;64597;42.664;23.256;2023-04-10T06:50:16;94624.59;;;10.90;52.70
6528;BME280;64597;42.664;23.256;2023-04-10T06:52:43;94636.50;;;11.04;52.34
6528;BME280;64597;42.664;23.256;2023-04-10T06:55:09;94624.34;;;11.03;51.59
6528;BME280;64597;42.664;23.256;2023-04-10T06:57:34;94635.44;;;11.05;51.78
6528;BME280;64597;42.664;23.256;2023-04-10T07:00:00;94641.78;;;11.04;51.62
6528;BME280;64597;42.664;23.256;2023-04-10T07:02:26;94629.53;;;10.98;51.60
6528;BME280;64597;42.664;23.256;2023-04-10T07:04:51;94638.00;;;11.00;51.01
6528;BME280;64597;42.664;23.256;2023-04-10T07:07:17;94631.06;;;10.82;50.88
6528;BME280;64597;42.664;23.256;2023-04-10T07:09:43;94642.28;;;10.77;50.99
6528;BME280;64597;42.664;23.256;2023-04-10T07:12:09;94636.47;;;10.64;51.52
6528;BME280;64597;42.664;23.256;2023-04-10T07:14:34;94637.38;;;10.69;51.29
6528;BME280;64597;42.664;23.256;2023-04-10T07:17:00;94631.53;;;10.67;51.43
6528;BME280;64597;42.664;23.256;2023-04-10T07:19:26;94636.56;;;10.81;51.18
6528;BME280;64597;42.664;23.256;2023-04-10T07:21:51;94632.69;;;10.71;50.79
6528;BME280;64597;42.664;23.256;2023-04-10T07:24:17;94635.22;;;10.66;50.89
6528;BME280;64597;42.664;23.256;2023-04-10T07:26:45;94640.16;;;10.63;50.80
6528;BME280;64597;42.664;23.256;2023-04-10T07:29:11;94632.03;;;10.64;51.22
6528;BME280;64597;42.664;23.256;2023-04-10T07:31:38;94645.22;;;10.64;50.99
6528;BME280;64597;42.664;23.256;2023-04-10T07:34:03;94636.59;;;10.57;51.35
6528;BME280;64597;42.664;23.256;2023-04-10T07:36:29;94643.50;;;10.58;51.26
6528;BME280;64597;42.664;23.256;2023-04-10T07:38:55;94646.00;;;10.53;51.54
6528;BME280;64597;42.664;23.256;2023-04-10T07:41:20;94646.28;;;10.40;51.34
6528;BME280;64597;42.664;23.256;2023-04-10T07:43:46;94642.59;;;10.41;51.35
6528;BME280;64597;42.664;23.256;2023-04-10T07:46:12;94653.34;;;10.51;51.60
6528;BME280;64597;42.664;23.256;2023-04-10T07:48:37;94637.81;;;10.38;51.56
6528;BME280;64597;42.664;23.256;2023-04-10T07:51:03;94641.78;;;10.41;51.84
6528;BME280;64597;42.664;23.256;2023-04-10T07:53:29;94645.00;;;10.31;51.54
6528;BME280;64597;42.664;23.256;2023-04-10T07:55:55;94633.88;;;10.52;51.77
6528;BME280;64597;42.664;23.256;2023-04-10T07:58:21;94643.72;;;10.68;50.95
6528;BME280;64597;42.664;23.256;2023-04-10T08:00:46;94636.00;;;10.78;50.64
6528;BME280;64597;42.664;23.256;2023-04-10T08:03:14;94642.56;;;10.64;50.18
6528;BME280;64597;42.664;23.256;2023-04-10T08:05:39;94625.59;;;10.60;50.72
6528;BME280;64597;42.664;23.256;2023-04-10T08:08:05;94639.38;;;10.62;50.35
6528;BME280;64597;42.664;23.256;2023-04-10T08:10:30;94640.63;;;10.60;50.52
6528;BME280;64597;42.664;23.256;2023-04-10T08:12:56;94642.81;;;10.63;50.54
6528;BME280;64597;42.664;23.256;2023-04-10T08:15:21;94602.28;;;10.29;50.28
6528;BME280;64597;42.664;23.256;2023-04-10T08:17:47;94636.03;;;10.67;50.31
6528;BME280;64597;42.664;23.256;2023-04-10T08:20:12;94639.69;;;10.66;50.32
6528;BME280;64597;42.664;23.256;2023-04-10T08:22:38;94627.25;;;10.38;50.45
6528;BME280;64597;42.664;23.256;2023-04-10T08:25:04;94639.28;;;10.46;51.09
6528;BME280;64597;42.664;23.256;2023-04-10T08:27:29;94644.22;;;10.42;50.84
6528;BME280;64597;42.664;23.256;2023-04-10T08:29:55;94633.44;;;10.44;51.77
6528;BME280;64597;42.664;23.256;2023-04-10T08:32:20;94635.13;;;10.50;51.25
6528;BME280;64597;42.664;23.256;2023-04-10T08:34:46;94641.31;;;10.55;51.74
6528;BME280;64597;42.664;23.256;2023-04-10T08:37:13;94639.38;;;10.62;50.74
6528;BME280;64597;42.664;23.256;2023-04-10T08:39:40;94631.91;;;10.71;51.28
6528;BME280;64597;42.664;23.256;2023-04-10T08:42:06;94636.09;;;10.84;50.93
6528;BME280;64597;42.664;23.256;2023-04-10T08:44:31;94639.44;;;10.67;50.78
6528;BME280;64597;42.664;23.256;2023-04-10T08:46:58;94631.53;;;10.67;50.87
6528;BME280;64597;42.664;23.256;2023-04-10T08:49:31;94636.69;;;10.74;50.24
6528;BME280;64597;42.664;23.256;2023-04-10T08:52:06;94634.13;;;10.91;50.30
6528;BME280;64597;42.664;23.256;2023-04-10T08:54:34;94633.06;;;10.92;50.91
6528;BME280;64597;42.664;23.256;2023-04-10T08:57:02;94624.59;;;10.90;49.95
6528;BME280;64597;42.664;23.256;2023-04-10T08:59:30;94607.50;;;10.92;50.07
6528;BME280;64597;42.664;23.256;2023-04-10T09:01:56;94595.50;;;10.85;49.72
6528;BME280;64597;42.664;23.256;2023-04-10T09:04:25;94619.94;;;10.80;50.35
6528;BME280;64597;42.664;23.256;2023-04-10T09:06:54;94619.44;;;10.95;50.56
6528;BME280;64597;42.664;23.256;2023-04-10T09:09:19;94614.34;;;10.76;49.86
6528;BME280;64597;42.664;23.256;2023-04-10T09:16:46;94612.25;;;10.78;50.09
6528;BME280;64597;42.664;23.256;2023-04-10T09:19:12;94609.81;;;10.89;49.99
6528;BME280;64597;42.664;23.256;2023-04-10T09:21:37;94605.91;;;10.91;49.35
6528;BME280;64597;42.664;23.256;2023-04-10T09:24:03;94607.84;;;10.96;49.89
6528;BME280;64597;42.664;23.256;2023-04-10T09:26:30;94602.91;;;10.99;49.79
6528;BME280;64597;42.664;23.256;2023-04-10T09:29:04;94601.66;;;11.02;49.57
6528;BME280;64597;42.664;23.256;2023-04-10T09:31:31;94598.38;;;11.11;49.17
6528;BME280;64597;42.664;23.256;2023-04-10T09:36:42;94595.44;;;11.24;49.14
6528;BME280;64597;42.664;23.256;2023-04-10T09:39:10;94595.16;;;11.37;49.06
6528;BME280;64597;42.664;23.256;2023-04-10T09:41:49;94572.69;;;11.07;48.49
6528;BME280;64597;42.664;23.256;2023-04-10T09:44:32;94589.63;;;11.39;48.01
6528;BME280;64597;42.664;23.256;2023-04-10T09:46:58;94593.38;;;11.43;48.47
6528;BME280;64597;42.664;23.256;2023-04-10T09:49:47;94603.94;;;11.43;48.12
6528;BME280;64597;42.664;23.256;2023-04-10T09:52:21;94611.78;;;11.38;48.37
6528;BME280;64597;42.664;23.256;2023-04-10T09:54:47;94607.53;;;11.37;48.64
6528;BME280;64597;42.664;23.256;2023-04-10T09:57:16;94593.38;;;11.43;48.32
6528;BME280;64597;42.664;23.256;2023-04-10T09:59:49;94594.66;;;11.24;48.49
6528;BME280;64597;42.664;23.256;2023-04-10T10:02:20;94597.69;;;11.16;48.81
6528;BME280;64597;42.664;23.256;2023-04-10T10:04:46;94597.19;;;11.19;48.21
6528;BME280;64597;42.664;23.256;2023-04-10T10:07:16;94595.41;;;11.08;49.00
6528;BME280;64597;42.664;23.256;2023-04-10T10:09:43;94586.69;;;11.07;49.09
6528;BME280;64597;42.664;23.256;2023-04-10T10:12:10;94589.41;;;11.40;47.77
6528;BME280;64597;42.664;23.256;2023-04-10T10:15:08;94579.81;;;11.84;47.10
6528;BME280;64597;42.664;23.256;2023-04-10T10:18:01;94595.84;;;11.94;47.43
6528;BME280;64597;42.664;23.256;2023-04-10T10:20:30;94556.19;;;11.94;47.81
6528;BME280;64597;42.664;23.256;2023-04-10T10:22:57;94588.75;;;12.16;47.21
6528;BME280;64597;42.664;23.256;2023-04-10T10:25:23;94584.06;;;12.02;46.50
6528;BME280;64597;42.664;23.256;2023-04-10T10:27:50;94570.53;;;11.98;46.73
6528;BME280;64597;42.664;23.256;2023-04-10T10:30:18;94566.03;;;12.15;45.83
6528;BME280;64597;42.664;23.256;2023-04-10T10:32:45;94555.78;;;12.02;44.91
6528;BME280;64597;42.664;23.256;2023-04-10T10:35:12;94558.75;;;12.06;45.23
6528;BME280;64597;42.664;23.256;2023-04-10T10:37:38;94572.38;;;11.98;45.04
6528;BME280;64597;42.664;23.256;2023-04-10T10:42:52;94550.47;;;11.81;44.84
6528;BME280;64597;42.664;23.256;2023-04-10T10:45:24;94555.31;;;12.05;45.12
6528;BME280;64597;42.664;23.256;2023-04-10T10:47:53;94558.75;;;12.44;44.18
6528;BME280;64597;42.664;23.256;2023-04-10T10:50:19;94542.84;;;12.66;44.02
6528;BME280;64597;42.664;23.256;2023-04-10T10:58:01;94548.50;;;12.74;43.25
6528;BME280;64597;42.664;23.256;2023-04-10T11:05:56;94524.44;;;12.76;42.73
6528;BME280;64597;42.664;23.256;2023-04-10T11:13:37;94515.59;;;12.87;44.34
6528;BME280;64597;42.664;23.256;2023-04-10T11:16:05;94517.44;;;12.86;43.56
6528;BME280;64597;42.664;23.256;2023-04-10T11:28:58;94499.97;;;13.44;41.43
6528;BME280;64597;42.664;23.256;2023-04-10T11:31:23;94493.50;;;13.61;40.19
6528;BME280;64597;42.664;23.256;2023-04-10T11:36:25;94492.56;;;13.82;40.52
6528;BME280;64597;42.664;23.256;2023-04-10T11:39:02;94501.06;;;13.84;41.37
6528;BME280;64597;42.664;23.256;2023-04-10T11:41:39;94498.63;;;13.73;41.61
6528;BME280;64597;42.664;23.256;2023-04-10T11:44:12;94489.19;;;13.50;41.78
6528;BME280;64597;42.664;23.256;2023-04-10T11:46:40;94502.44;;;13.50;42.05
6528;BME280;64597;42.664;23.256;2023-04-10T11:49:07;94504.06;;;13.56;41.41
6528;BME280;64597;42.664;23.256;2023-04-10T11:51:36;94484.84;;;13.39;41.64
6528;BME280;64597;42.664;23.256;2023-04-10T11:54:07;94496.13;;;13.56;41.58
6528;BME280;64597;42.664;23.256;2023-04-10T11:56:33;94471.53;;;13.29;41.89
6528;BME280;64597;42.664;23.256;2023-04-10T11:58:59;94493.25;;;13.63;42.22
6528;BME280;64597;42.664;23.256;2023-04-10T12:01:27;94482.78;;;13.83;41.72
6528;BME280;64597;42.664;23.256;2023-04-10T12:03:52;94491.88;;;13.97;41.40
6528;BME280;64597;42.664;23.256;2023-04-10T12:06:18;94481.38;;;14.12;41.27
6528;BME280;64597;42.664;23.256;2023-04-10T12:08:45;94466.97;;;13.98;41.40
6528;BME280;64597;42.664;23.256;2023-04-10T12:11:23;94479.44;;;13.97;41.86
6528;BME280;64597;42.664;23.256;2023-04-10T12:13:53;94473.63;;;13.59;41.28
6528;BME280;64597;42.664;23.256;2023-04-10T12:16:19;94482.72;;;13.36;41.97
6528;BME280;64597;42.664;23.256;2023-04-10T12:18:45;94476.34;;;13.37;42.18
6528;BME280;64597;42.664;23.256;2023-04-10T12:21:11;94487.56;;;13.49;42.05
6528;BME280;64597;42.664;23.256;2023-04-10T12:23:38;94477.44;;;13.36;41.43
6528;BME280;64597;42.664;23.256;2023-04-10T12:26:17;94486.84;;;13.22;42.54
6528;BME280;64597;42.664;23.256;2023-04-10T12:29:08;94493.50;;;13.25;43.68
6528;BME280;64597;42.664;23.256;2023-04-10T12:31:35;94492.31;;;12.89;45.46
6528;BME280;64597;42.664;23.256;2023-04-10T12:34:03;94502.41;;;12.22;50.96
6528;BME280;64597;42.664;23.256;2023-04-10T12:36:31;94534.22;;;12.10;52.57
6528;BME280;64597;42.664;23.256;2023-04-10T12:38:59;94532.63;;;11.71;54.22
6528;BME280;64597;42.664;23.256;2023-04-10T12:41:28;94537.78;;;11.49;54.49
6528;BME280;64597;42.664;23.256;2023-04-10T12:44:09;94539.00;;;11.25;56.06
6528;BME280;64597;42.664;23.256;2023-04-10T12:46:35;94539.28;;;11.12;57.22
6528;BME280;64597;42.664;23.256;2023-04-10T12:51:47;94523.13;;;11.09;58.67
6528;BME280;64597;42.664;23.256;2023-04-10T12:56:54;94527.91;;;10.95;58.89
6528;BME280;64597;42.664;23.256;2023-04-10T12:59:20;94514.31;;;10.87;59.38
6528;BME280;64597;42.664;23.256;2023-04-10T13:01:45;94511.75;;;10.92;59.93
6528;BME280;64597;42.664;23.256;2023-04-10T13:04:11;94525.69;;;11.04;59.21
6528;BME280;64597;42.664;23.256;2023-04-10T13:06:43;94514.50;;;11.13;59.94
6528;BME280;64597;42.664;23.256;2023-04-10T13:09:09;94518.03;;;11.19;60.49
6528;BME280;64597;42.664;23.256;2023-04-10T13:11:35;94515.09;;;11.32;60.48
6528;BME280;64597;42.664;23.256;2023-04-10T13:14:00;94514.38;;;11.36;59.02
6528;BME280;64597;42.664;23.256;2023-04-10T13:16:25;94509.56;;;11.33;58.46
6528;BME280;64597;42.664;23.256;2023-04-10T13:18:51;94515.97;;;11.37;58.94
6528;BME280;64597;42.664;23.256;2023-04-10T13:21:16;94505.41;;;11.37;58.04
6528;BME280;64597;42.664;23.256;2023-04-10T13:23:47;94483.47;;;11.37;57.14
6528;BME280;64597;42.664;23.256;2023-04-10T13:26:12;94493.72;;;11.50;55.93
6528;BME280;64597;42.664;23.256;2023-04-10T13:28:38;94492.59;;;11.79;55.56
6528;BME280;64597;42.664;23.256;2023-04-10T13:31:03;94496.53;;;11.77;54.41
6528;BME280;64597;42.664;23.256;2023-04-10T13:33:29;94487.13;;;11.86;55.63
6528;BME280;64597;42.664;23.256;2023-04-10T13:35:54;94476.56;;;11.86;56.58
6528;BME280;64597;42.664;23.256;2023-04-10T13:38:20;94480.94;;;11.97;56.05
6528;BME280;64597;42.664;23.256;2023-04-10T13:40:45;94472.75;;;11.98;55.60
6528;BME280;64597;42.664;23.256;2023-04-10T13:43:11;94465.22;;;11.85;52.25
6528;BME280;64597;42.664;23.256;2023-04-10T13:45:37;94473.75;;;11.92;52.75
6528;BME280;64597;42.664;23.256;2023-04-10T13:48:03;94468.78;;;11.96;53.32
6528;BME280;64597;42.664;23.256;2023-04-10T13:50:31;94471.09;;;11.92;52.97
6528;BME280;64597;42.664;23.256;2023-04-10T13:52:56;94465.66;;;11.99;52.54
6528;BME280;64597;42.664;23.256;2023-04-10T13:55:22;94460.91;;;12.01;52.11
6528;BME280;64597;42.664;23.256;2023-04-10T13:57:47;94463.44;;;11.91;51.25
6528;BME280;64597;42.664;23.256;2023-04-10T14:00:13;94463.25;;;11.97;52.07
6528;BME280;64597;42.664;23.256;2023-04-10T14:02:38;94455.72;;;12.06;52.17